sensor_id;sensor_type;location;lat;lon;timestamp;pressure;altitude;pressure_sealevel;temperature;humidity
56807;BME280;42687;42.524;12.052;2022-11-15T00:00:52;97186.06;;;4.70;100.00
56807;BME280;42687;42.524;12.052;2022-11-15T00:03:19;97192.34;;;4.61;100.00
56807;BME280;42687;42.524;12.052;2022-11-15T00:05:44;97185.53;;;4.57;100.00
56807;BME280;42687;42.524;12.052;2022-11-15T00:08:10;97183.81;;;4.56;100.00
56807;BME280;42687;42.524;12.052;2022-11-15T00:10:36;97185.53;;;4.57;100.00
56807;BME280;42687;42.524;12.052;2022-11-15T00:13:08;97185.47;;;4.58;100.00
56807;BME280;42687;42.524;12.052;2022-11-15T00:15:35;97187.25;;;4.56;100.00
56807;BME280;42687;42.524;12.052;2022-11-15T00:18:01;97187.25;;;4.56;100.00
56807;BME280;42687;42.524;12.052;2022-11-15T00:20:27;97190.00;;;4.51;100.00
56807;BME280;42687;42.524;12.052;2022-11-15T00:22:52;97190.09;;;4.48;100.00
56807;BME280;42687;42.524;12.052;2022-11-15T00:25:18;97186.75;;;4.43;100.00
56807;BME280;42687;42.524;12.052;2022-11-15T00:27:43;97181.59;;;4.42;100.00
56807;BME280;42687;42.524;12.052;2022-11-15T00:30:10;97182.59;;;4.36;100.00
56807;BME280;42687;42.524;12.052;2022-11-15T00:32:36;97179.25;;;4.31;100.00
56807;BME280;42687;42.524;12.052;2022-11-15T00:35:01;97186.13;;;4.35;100.00
56807;BME280;42687;42.524;12.052;2022-11-15T00:37:27;97192.03;;;4.40;100.00
56807;BME280;42687;42.524;12.052;2022-11-15T00:39:52;97186.88;;;4.39;100.00
56807;BME280;42687;42.524;12.052;2022-11-15T00:42:18;97190.53;;;4.31;100.00
56807;BME280;42687;42.524;12.052;2022-11-15T00:44:43;97184.63;;;4.25;100.00
56807;BME280;42687;42.524;12.052;2022-11-15T00:47:09;97179.69;;;4.15;100.00
56807;BME280;42687;42.524;12.052;2022-11-15T00:49:34;97178.09;;;4.08;100.00
56807;BME280;42687;42.524;12.052;2022-11-15T00:52:00;97177.50;;;3.98;100.00
56807;BME280;42687;42.524;12.052;2022-11-15T00:54:25;97150.13;;;3.83;100.00
56807;BME280;42687;42.524;12.052;2022-11-15T00:56:51;97172.91;;;4.08;100.00
56807;BME280;42687;42.524;12.052;2022-11-15T00:59:16;97173.59;;;4.15;100.00
56807;BME280;42687;42.524;12.052;2022-11-15T01:01:42;97121.88;;;4.03;100.00
56807;BME280;42687;42.524;12.052;2022-11-15T01:04:07;97172.38;;;4.30;100.00
56807;BME280;42687;42.524;12.052;2022-11-15T01:06:33;97172.66;;;4.17;100.00
56807;BME280;42687;42.524;12.052;2022-11-15T01:08:58;97166.94;;;4.05;100.00
56807;BME280;42687;42.524;12.052;2022-11-15T01:11:24;97168.09;;;3.93;100.00
56807;BME280;42687;42.524;12.052;2022-11-15T01:13:49;97162.34;;;3.80;100.00
56807;BME280;42687;42.524;12.052;2022-11-15T01:16:16;97161.63;;;3.73;100.00
56807;BME280;42687;42.524;12.052;2022-11-15T01:18:44;97154.63;;;3.75;100.00
56807;BME280;42687;42.524;12.052;2022-11-15T01:21:10;97152.69;;;3.85;100.00
56807;BME280;42687;42.524;12.052;2022-11-15T01:23:36;97150.53;;;4.01;100.00
56807;BME280;42687;42.524;12.052;2022-11-15T01:26:02;97150.22;;;4.13;100.00
56807;BME280;42687;42.524;12.052;2022-11-15T01:28:29;97141.50;;;4.14;100.00
56807;BME280;42687;42.524;12.052;2022-11-15T01:30:57;97144.28;;;4.08;100.00
56807;BME280;42687;42.524;12.052;2022-11-15T01:33:22;97143.66;;;3.98;100.00
56807;BME280;42687;42.524;12.052;2022-11-15T01:35:48;97140.31;;;3.93;100.00
56807;BME280;42687;42.524;12.052;2022-11-15T01:38:13;97140.41;;;3.90;100.00
56807;BME280;42687;42.524;12.052;2022-11-15T01:40:39;97144.69;;;3.93;100.00
56807;BME280;42687;42.524;12.052;2022-11-15T01:43:26;97142.84;;;3.96;100.00
56807;BME280;42687;42.524;12.052;2022-11-15T01:46:02;97129.81;;;3.98;100.00
56807;BME280;42687;42.524;12.052;2022-11-15T01:48:31;97134.09;;;3.99;100.00
56807;BME280;42687;42.524;12.052;2022-11-15T01:50:58;97134.69;;;4.10;100.00
56807;BME280;42687;42.524;12.052;2022-11-15T01:53:24;97130.22;;;4.15;100.00
56807;BME280;42687;42.524;12.052;2022-11-15T01:55:51;97123.25;;;4.16;100.00
56807;BME280;42687;42.524;12.052;2022-11-15T01:58:17;97122.66;;;4.06;100.00
56807;BME280;42687;42.524;12.052;2022-11-15T02:00:43;97104.72;;;3.94;100.00
56807;BME280;42687;42.524;12.052;2022-11-15T02:03:08;97117.69;;;3.97;100.00
56807;BME280;42687;42.524;12.052;2022-11-15T02:05:35;97119.75;;;3.84;100.00
56807;BME280;42687;42.524;12.052;2022-11-15T02:08:01;97124.38;;;3.73;100.00
56807;BME280;42687;42.524;12.052;2022-11-15T02:10:27;97127.25;;;3.60;100.00
56807;BME280;42687;42.524;12.052;2022-11-15T02:12:52;97129.16;;;3.54;100.00
56807;BME280;42687;42.524;12.052;2022-11-15T02:15:19;97129.94;;;3.57;100.00
56807;BME280;42687;42.524;12.052;2022-11-15T02:20:18;97131.22;;;3.77;100.00
56807;BME280;42687;42.524;12.052;2022-11-15T02:25:37;97119.31;;;4.01;100.00
56807;BME280;42687;42.524;12.052;2022-11-15T02:30:33;97116.75;;;4.31;100.00
56807;BME280;42687;42.524;12.052;2022-11-15T02:33:03;97110.50;;;4.38;100.00
56807;BME280;42687;42.524;12.052;2022-11-15T02:41:13;97113.50;;;3.91;100.00
56807;BME280;42687;42.524;12.052;2022-11-15T02:43:46;97119.84;;;3.81;100.00
56807;BME280;42687;42.524;12.052;2022-11-15T02:49:22;97119.22;;;3.70;100.00
56807;BME280;42687;42.524;12.052;2022-11-15T02:51:49;97072.28;;;3.41;100.00
56807;BME280;42687;42.524;12.052;2022-11-15T02:54:20;97106.28;;;3.68;100.00
56807;BME280;42687;42.524;12.052;2022-11-15T02:56:47;97111.13;;;3.82;100.00
56807;BME280;42687;42.524;12.052;2022-11-15T02:59:17;97115.16;;;3.94;100.00
56807;BME280;42687;42.524;12.052;2022-11-15T03:04:52;97114.88;;;3.72;100.00
56807;BME280;42687;42.524;12.052;2022-11-15T03:07:22;97096.16;;;3.57;100.00
56807;BME280;42687;42.524;12.052;2022-11-15T03:10:13;97092.72;;;3.55;100.00
56807;BME280;42687;42.524;12.052;2022-11-15T03:12:37;97101.91;;;3.68;100.00
56807;BME280;42687;42.524;12.052;2022-11-15T03:15:12;97097.41;;;3.75;100.00
56807;BME280;42687;42.524;12.052;2022-11-15T03:17:44;97100.94;;;3.74;100.00
56807;BME280;42687;42.524;12.052;2022-11-15T03:20:13;97106.00;;;3.79;100.00
56807;BME280;42687;42.524;12.052;2022-11-15T03:22:42;97110.16;;;3.86;100.00
56807;BME280;42687;42.524;12.052;2022-11-15T03:25:09;97108.41;;;3.87;100.00
56807;BME280;42687;42.524;12.052;2022-11-15T03:27:37;97104.19;;;3.82;100.00
56807;BME280;42687;42.524;12.052;2022-11-15T03:30:05;97098.09;;;3.83;100.00
56807;BME280;42687;42.524;12.052;2022-11-15T03:32:32;97093.69;;;3.86;100.00
56807;BME280;42687;42.524;12.052;2022-11-15T03:35:04;97096.22;;;3.89;100.00
56807;BME280;42687;42.524;12.052;2022-11-15T03:40:07;97101.91;;;3.70;100.00
56807;BME280;42687;42.524;12.052;2022-11-15T03:42:38;97101.31;;;3.59;100.00
56807;BME280;42687;42.524;12.052;2022-11-15T03:47:36;97109.47;;;3.43;100.00
56807;BME280;42687;42.524;12.052;2022-11-15T03:50:08;97099.97;;;3.42;100.00
56807;BME280;42687;42.524;12.052;2022-11-15T03:52:35;97105.81;;;3.52;100.00
56807;BME280;42687;42.524;12.052;2022-11-15T03:55:03;97111.59;;;3.63;100.00
56807;BME280;42687;42.524;12.052;2022-11-15T03:57:29;97109.47;;;3.78;100.00
56807;BME280;42687;42.524;12.052;2022-11-15T03:59:54;97110.91;;;3.90;100.00
56807;BME280;42687;42.524;12.052;2022-11-15T04:02:20;97094.91;;;4.05;100.00
56807;BME280;42687;42.524;12.052;2022-11-15T04:04:45;97093.78;;;4.15;100.00
56807;BME280;42687;42.524;12.052;2022-11-15T04:07:11;97089.28;;;4.21;100.00
56807;BME280;42687;42.524;12.052;2022-11-15T04:09:36;97085.53;;;4.31;100.00
56807;BME280;42687;42.524;12.052;2022-11-15T04:12:22;97086.72;;;4.50;100.00
56807;BME280;42687;42.524;12.052;2022-11-15T04:15:03;97088.81;;;4.38;100.00
56807;BME280;42687;42.524;12.052;2022-11-15T04:17:32;97091.22;;;4.12;100.00
56807;BME280;42687;42.524;12.052;2022-11-15T04:19:57;97081.31;;;3.94;100.00
56807;BME280;42687;42.524;12.052;2022-11-15T04:22:41;97079.09;;;3.80;100.00
56807;BME280;42687;42.524;12.052;2022-11-15T04:25:25;97068.00;;;3.73;100.00
56807;BME280;42687;42.524;12.052;2022-11-15T04:27:50;97027.94;;;3.46;100.00
56807;BME280;42687;42.524;12.052;2022-11-15T04:30:16;97066.41;;;3.67;100.00
56807;BME280;42687;42.524;12.052;2022-11-15T04:32:42;97063.44;;;3.81;100.00
56807;BME280;42687;42.524;12.052;2022-11-15T04:35:07;97069.34;;;3.88;100.00
56807;BME280;42687;42.524;12.052;2022-11-15T04:37:33;97056.50;;;3.82;100.00
56807;BME280;42687;42.524;12.052;2022-11-15T04:39:58;97067.06;;;3.76;100.00
56807;BME280;42687;42.524;12.052;2022-11-15T04:42:24;97056.75;;;3.73;100.00
56807;BME280;42687;42.524;12.052;2022-11-15T04:44:49;97054.09;;;3.74;100.00
56807;BME280;42687;42.524;12.052;2022-11-15T04:47:15;97068.03;;;3.72;100.00
56807;BME280;42687;42.524;12.052;2022-11-15T04:49:40;97080.22;;;3.70;100.00
56807;BME280;42687;42.524;12.052;2022-11-15T04:52:06;97088.16;;;3.65;100.00
56807;BME280;42687;42.524;12.052;2022-11-15T04:54:31;97089.84;;;3.66;100.00
56807;BME280;42687;42.524;12.052;2022-11-15T04:56:57;97079.47;;;3.64;100.00
56807;BME280;42687;42.524;12.052;2022-11-15T04:59:22;97068.94;;;3.71;100.00
56807;BME280;42687;42.524;12.052;2022-11-15T05:01:48;97055.53;;;3.86;100.00
56807;BME280;42687;42.524;12.052;2022-11-15T05:04:13;97054.09;;;4.06;100.00
56807;BME280;42687;42.524;12.052;2022-11-15T05:06:48;97018.59;;;4.03;100.00
56807;BME280;42687;42.524;12.052;2022-11-15T05:09:14;97050.97;;;4.26;100.00
56807;BME280;42687;42.524;12.052;2022-11-15T05:11:40;97049.59;;;4.12;100.00
56807;BME280;42687;42.524;12.052;2022-11-15T05:14:06;97053.56;;;3.94;100.00
56807;BME280;42687;42.524;12.052;2022-11-15T05:16:31;97063.44;;;3.81;100.00
56807;BME280;42687;42.524;12.052;2022-11-15T05:18:57;97070.63;;;3.72;100.00
56807;BME280;42687;42.524;12.052;2022-11-15T05:21:22;97055.88;;;3.72;100.00
56807;BME280;42687;42.524;12.052;2022-11-15T05:23:48;97061.72;;;3.80;100.00
56807;BME280;42687;42.524;12.052;2022-11-15T05:26:14;97060.69;;;3.88;100.00
56807;BME280;42687;42.524;12.052;2022-11-15T05:28:40;97061.31;;;3.96;100.00
56807;BME280;42687;42.524;12.052;2022-11-15T05:31:12;97066.13;;;4.11;100.00
56807;BME280;42687;42.524;12.052;2022-11-15T05:33:39;97074.00;;;4.08;100.00
56807;BME280;42687;42.524;12.052;2022-11-15T05:38:30;97057.41;;;4.12;100.00
56807;BME280;42687;42.524;12.052;2022-11-15T05:40:56;97057.81;;;4.30;100.00
56807;BME280;42687;42.524;12.052;2022-11-15T05:43:22;97052.84;;;4.50;100.00
56807;BME280;42687;42.524;12.052;2022-11-15T05:45:48;97047.19;;;4.66;100.00
56807;BME280;42687;42.524;12.052;2022-11-15T05:48:13;97058.28;;;4.73;100.00
56807;BME280;42687;42.524;12.052;2022-11-15T05:50:41;97058.84;;;4.82;100.00
56807;BME280;42687;42.524;12.052;2022-11-15T05:53:07;97073.69;;;4.80;100.00
56807;BME280;42687;42.524;12.052;2022-11-15T05:55:34;97071.53;;;4.65;100.00
56807;BME280;42687;42.524;12.052;2022-11-15T05:58:00;97075.31;;;4.55;100.00
56807;BME280;42687;42.524;12.052;2022-11-15T06:00:26;97077.19;;;4.49;100.00
56807;BME280;42687;42.524;12.052;2022-11-15T06:02:51;97069.19;;;4.56;100.00
56807;BME280;42687;42.524;12.052;2022-11-15T06:05:17;97072.44;;;4.64;100.00
56807;BME280;42687;42.524;12.052;2022-11-15T06:07:42;97064.41;;;4.72;100.00
56807;BME280;42687;42.524;12.052;2022-11-15T06:10:09;97059.09;;;4.75;100.00
56807;BME280;42687;42.524;12.052;2022-11-15T06:12:34;97068.00;;;4.96;100.00
56807;BME280;42687;42.524;12.052;2022-11-15T06:15:00;97062.78;;;4.96;100.00
56807;BME280;42687;42.524;12.052;2022-11-15T06:17:25;97068.00;;;4.96;100.00
56807;BME280;42687;42.524;12.052;2022-11-15T06:19:51;97077.41;;;5.01;100.00
56807;BME280;42687;42.524;12.052;2022-11-15T06:22:16;97078.84;;;5.10;100.00
56807;BME280;42687;42.524;12.052;2022-11-15T06:24:42;97076.78;;;5.22;100.00
56807;BME280;42687;42.524;12.052;2022-11-15T06:27:10;97075.38;;;5.38;100.00
56807;BME280;42687;42.524;12.052;2022-11-15T06:29:35;97068.81;;;5.53;100.00
56807;BME280;42687;42.524;12.052;2022-11-15T06:32:01;97062.31;;;5.65;100.00
56807;BME280;42687;42.524;12.052;2022-11-15T06:34:26;97074.16;;;5.75;100.00
56807;BME280;42687;42.524;12.052;2022-11-15T06:36:52;97065.22;;;5.82;100.00
56807;BME280;42687;42.524;12.052;2022-11-15T06:39:17;97082.38;;;5.90;100.00
56807;BME280;42687;42.524;12.052;2022-11-15T06:41:43;97081.34;;;5.94;100.00
56807;BME280;42687;42.524;12.052;2022-11-15T06:44:08;97086.50;;;5.95;100.00
56807;BME280;42687;42.524;12.052;2022-11-15T06:46:34;97081.19;;;6.00;100.00
56807;BME280;42687;42.524;12.052;2022-11-15T06:48:59;97079.28;;;6.05;100.00
56807;BME280;42687;42.524;12.052;2022-11-15T06:51:25;97082.47;;;6.13;100.00
56807;BME280;42687;42.524;12.052;2022-11-15T06:53:50;97077.94;;;6.18;100.00
56807;BME280;42687;42.524;12.052;2022-11-15T06:56:16;97074.22;;;6.24;100.00
56807;BME280;42687;42.524;12.052;2022-11-15T06:58:41;97074.94;;;6.29;100.00
56807;BME280;42687;42.524;12.052;2022-11-15T07:01:08;97073.97;;;6.32;100.00
56807;BME280;42687;42.524;12.052;2022-11-15T07:03:35;97079.06;;;6.35;100.00
56807;BME280;42687;42.524;12.052;2022-11-15T07:06:01;97076.44;;;6.37;100.00
56807;BME280;42687;42.524;12.052;2022-11-15T07:08:27;97078.00;;;6.41;100.00
56807;BME280;42687;42.524;12.052;2022-11-15T07:10:53;97069.22;;;6.43;100.00
56807;BME280;42687;42.524;12.052;2022-11-15T07:13:19;97076.94;;;6.46;100.00
56807;BME280;42687;42.524;12.052;2022-11-15T07:15:44;97082.03;;;6.49;100.00
56807;BME280;42687;42.524;12.052;2022-11-15T07:18:10;97080.16;;;6.53;100.00
56807;BME280;42687;42.524;12.052;2022-11-15T07:20:36;97070.41;;;6.58;100.00
56807;BME280;42687;42.524;12.052;2022-11-15T07:23:02;97067.66;;;6.61;100.00
56807;BME280;42687;42.524;12.052;2022-11-15T07:25:27;97062.28;;;6.66;100.00
56807;BME280;42687;42.524;12.052;2022-11-15T07:27:56;97056.19;;;6.65;100.00
56807;BME280;42687;42.524;12.052;2022-11-15T07:30:22;97067.44;;;6.67;100.00
56807;BME280;42687;42.524;12.052;2022-11-15T07:32:51;97066.53;;;6.68;100.00
56807;BME280;42687;42.524;12.052;2022-11-15T07:35:17;97068.19;;;6.71;100.00
56807;BME280;42687;42.524;12.052;2022-11-15T07:37:42;97073.22;;;6.76;100.00
56807;BME280;42687;42.524;12.052;2022-11-15T07:40:08;97074.06;;;6.76;100.00
56807;BME280;42687;42.524;12.052;2022-11-15T07:42:34;97079.97;;;6.81;100.00
56807;BME280;42687;42.524;12.052;2022-11-15T07:45:18;97081.41;;;6.90;100.00
56807;BME280;42687;42.524;12.052;2022-11-15T07:47:46;97077.59;;;6.99;100.00
56807;BME280;42687;42.524;12.052;2022-11-15T07:50:12;97083.38;;;7.07;100.00
56807;BME280;42687;42.524;12.052;2022-11-15T07:52:37;97077.78;;;7.16;100.00
56807;BME280;42687;42.524;12.052;2022-11-15T07:55:03;97086.16;;;7.25;100.00
56807;BME280;42687;42.524;12.052;2022-11-15T07:57:29;97071.97;;;7.30;100.00
56807;BME280;42687;42.524;12.052;2022-11-15T07:59:55;97078.78;;;7.34;100.00
56807;BME280;42687;42.524;12.052;2022-11-15T08:02:20;97073.53;;;7.36;100.00
56807;BME280;42687;42.524;12.052;2022-11-15T08:04:45;97066.59;;;7.35;100.00
56807;BME280;42687;42.524;12.052;2022-11-15T08:07:11;97061.41;;;7.33;100.00
56807;BME280;42687;42.524;12.052;2022-11-15T08:09:36;97066.44;;;7.38;100.00
56807;BME280;42687;42.524;12.052;2022-11-15T08:12:02;97060.69;;;7.50;100.00
56807;BME280;42687;42.524;12.052;2022-11-15T08:14:27;97057.53;;;7.64;100.00
56807;BME280;42687;42.524;12.052;2022-11-15T08:16:54;97059.56;;;7.78;100.00
56807;BME280;42687;42.524;12.052;2022-11-15T08:19:19;97058.91;;;7.94;100.00
56807;BME280;42687;42.524;12.052;2022-11-15T08:21:45;97054.00;;;8.07;100.00
56807;BME280;42687;42.524;12.052;2022-11-15T08:24:10;97044.94;;;8.14;100.00
56807;BME280;42687;42.524;12.052;2022-11-15T08:26:36;97049.94;;;8.20;100.00
56807;BME280;42687;42.524;12.052;2022-11-15T08:29:01;97047.06;;;8.26;100.00
56807;BME280;42687;42.524;12.052;2022-11-15T08:31:27;97049.38;;;8.32;100.00
56807;BME280;42687;42.524;12.052;2022-11-15T08:33:52;97038.81;;;8.34;100.00
56807;BME280;42687;42.524;12.052;2022-11-15T08:36:18;97042.72;;;8.25;100.00
56807;BME280;42687;42.524;12.052;2022-11-15T08:38:44;97047.38;;;8.18;100.00
56807;BME280;42687;42.524;12.052;2022-11-15T08:41:11;97042.53;;;8.09;100.00
56807;BME280;42687;42.524;12.052;2022-11-15T08:43:37;97043.06;;;7.97;100.00
56807;BME280;42687;42.524;12.052;2022-11-15T08:46:03;97045.16;;;7.89;100.00
56807;BME280;42687;42.524;12.052;2022-11-15T08:48:29;97050.78;;;7.79;100.00
56807;BME280;42687;42.524;12.052;2022-11-15T08:50:55;97043.22;;;7.73;100.00
56807;BME280;42687;42.524;12.052;2022-11-15T08:53:21;97037.19;;;7.71;100.00
56807;BME280;42687;42.524;12.052;2022-11-15T08:55:46;97047.66;;;7.71;100.00
56807;BME280;42687;42.524;12.052;2022-11-15T08:58:12;97041.56;;;7.71;100.00
56807;BME280;42687;42.524;12.052;2022-11-15T09:00:37;97042.34;;;7.73;100.00
56807;BME280;42687;42.524;12.052;2022-11-15T09:03:03;97045.56;;;7.79;100.00
56807;BME280;42687;42.524;12.052;2022-11-15T09:05:29;97043.41;;;7.89;100.00
56807;BME280;42687;42.524;12.052;2022-11-15T09:07:55;97038.69;;;7.97;100.00
56807;BME280;42687;42.524;12.052;2022-11-15T09:10:21;97036.59;;;8.06;100.00
56807;BME280;42687;42.524;12.052;2022-11-15T09:12:46;97034.53;;;8.12;100.00
56807;BME280;42687;42.524;12.052;2022-11-15T09:15:13;97032.44;;;8.21;100.00
56807;BME280;42687;42.524;12.052;2022-11-15T09:17:39;97034.78;;;8.27;100.00
56807;BME280;42687;42.524;12.052;2022-11-15T09:20:05;97030.97;;;8.34;100.00
56807;BME280;42687;42.524;12.052;2022-11-15T09:22:30;97031.69;;;8.38;100.00
56807;BME280;42687;42.524;12.052;2022-11-15T09:24:56;97027.25;;;8.40;100.00
56807;BME280;42687;42.524;12.052;2022-11-15T09:27:21;97039.28;;;8.44;100.00
56807;BME280;42687;42.524;12.052;2022-11-15T09:29:47;97036.47;;;8.48;100.00
56807;BME280;42687;42.524;12.052;2022-11-15T09:32:12;97024.91;;;8.52;100.00
56807;BME280;42687;42.524;12.052;2022-11-15T09:34:38;97036.13;;;8.56;100.00
56807;BME280;42687;42.524;12.052;2022-11-15T09:37:03;97039.53;;;8.58;100.00
56807;BME280;42687;42.524;12.052;2022-11-15T09:39:28;97035.84;;;8.62;100.00
56807;BME280;42687;42.524;12.052;2022-11-15T09:44:24;97033.84;;;8.87;100.00
56807;BME280;42687;42.524;12.052;2022-11-15T09:47:05;97025.28;;;9.02;100.00
56807;BME280;42687;42.524;12.052;2022-11-15T09:49:34;97036.78;;;9.17;100.00
56807;BME280;42687;42.524;12.052;2022-11-15T09:52:00;97022.78;;;9.35;100.00
56807;BME280;42687;42.524;12.052;2022-11-15T09:54:27;97015.84;;;9.52;100.00
56807;BME280;42687;42.524;12.052;2022-11-15T09:56:56;97010.19;;;9.60;100.00
56807;BME280;42687;42.524;12.052;2022-11-15T09:59:46;97014.25;;;9.67;100.00
56807;BME280;42687;42.524;12.052;2022-11-15T10:04:33;97007.50;;;9.79;100.00
56807;BME280;42687;42.524;12.052;2022-11-15T10:07:04;97004.34;;;9.90;100.00
56807;BME280;42687;42.524;12.052;2022-11-15T10:12:23;96999.75;;;10.11;100.00
56807;BME280;42687;42.524;12.052;2022-11-15T10:14:50;96978.47;;;10.15;100.00
56807;BME280;42687;42.524;12.052;2022-11-15T10:17:24;96980.69;;;10.23;100.00
56807;BME280;42687;42.524;12.052;2022-11-15T10:22:25;96958.97;;;10.19;100.00
56807;BME280;42687;42.524;12.052;2022-11-15T10:25:09;96966.75;;;10.21;100.00
56807;BME280;42687;42.524;12.052;2022-11-15T10:27:37;96969.34;;;10.23;100.00
56807;BME280;42687;42.524;12.052;2022-11-15T10:30:04;96963.81;;;10.27;100.00
56807;BME280;42687;42.524;12.052;2022-11-15T10:32:35;96960.00;;;10.33;100.00
56807;BME280;42687;42.524;12.052;2022-11-15T10:35:01;96950.44;;;10.32;100.00
56807;BME280;42687;42.524;12.052;2022-11-15T10:37:42;96946.09;;;10.31;100.00
56807;BME280;42687;42.524;12.052;2022-11-15T10:40:20;96938.13;;;10.32;100.00
56807;BME280;42687;42.524;12.052;2022-11-15T10:42:46;96940.75;;;10.32;100.00
56807;BME280;42687;42.524;12.052;2022-11-15T10:45:25;96925.81;;;10.33;100.00
56807;BME280;42687;42.524;12.052;2022-11-15T10:47:51;96930.97;;;10.36;100.00
56807;BME280;42687;42.524;12.052;2022-11-15T10:50:28;96923.75;;;10.40;100.00
56807;BME280;42687;42.524;12.052;2022-11-15T10:52:54;96919.03;;;10.46;100.00
56807;BME280;42687;42.524;12.052;2022-11-15T10:55:21;96865.53;;;10.14;100.00
56807;BME280;42687;42.524;12.052;2022-11-15T10:57:52;96910.09;;;10.49;100.00
56807;BME280;42687;42.524;12.052;2022-11-15T11:02:45;96903.81;;;10.51;100.00
56807;BME280;42687;42.524;12.052;2022-11-15T11:07:59;96887.69;;;10.58;100.00
56807;BME280;42687;42.524;12.052;2022-11-15T11:10:26;96892.88;;;10.59;100.00
56807;BME280;42687;42.524;12.052;2022-11-15T11:12:52;96885.84;;;10.60;100.00
56807;BME280;42687;42.524;12.052;2022-11-15T11:15:17;96882.19;;;10.62;100.00
56807;BME280;42687;42.524;12.052;2022-11-15T11:17:52;96886.50;;;10.63;100.00
56807;BME280;42687;42.524;12.052;2022-11-15T11:25:34;96888.28;;;10.63;100.00
56807;BME280;42687;42.524;12.052;2022-11-15T11:31:05;96874.97;;;10.50;100.00
56807;BME280;42687;42.524;12.052;2022-11-15T11:33:38;96865.84;;;10.41;100.00
56807;BME280;42687;42.524;12.052;2022-11-15T11:38:41;96866.19;;;10.35;100.00
56807;BME280;42687;42.524;12.052;2022-11-15T11:43:44;96857.75;;;10.28;100.00
56807;BME280;42687;42.524;12.052;2022-11-15T11:46:37;96859.59;;;10.26;100.00
56807;BME280;42687;42.524;12.052;2022-11-15T11:49:02;96855.22;;;10.27;100.00
56807;BME280;42687;42.524;12.052;2022-11-15T11:51:34;96858.84;;;10.24;100.00
56807;BME280;42687;42.524;12.052;2022-11-15T11:56:45;96844.19;;;10.20;100.00
56807;BME280;42687;42.524;12.052;2022-11-15T11:59:17;96784.78;;;9.85;100.00
56807;BME280;42687;42.524;12.052;2022-11-15T12:01:44;96836.13;;;10.23;100.00
56807;BME280;42687;42.524;12.052;2022-11-15T12:11:55;96832.50;;;10.42;100.00
56807;BME280;42687;42.524;12.052;2022-11-15T12:14:31;96822.66;;;10.45;100.00
56807;BME280;42687;42.524;12.052;2022-11-15T12:16:58;96817.03;;;10.51;100.00
56807;BME280;42687;42.524;12.052;2022-11-15T12:19:24;96820.34;;;10.55;100.00
56807;BME280;42687;42.524;12.052;2022-11-15T12:21:53;96806.97;;;10.60;100.00
56807;BME280;42687;42.524;12.052;2022-11-15T12:24:26;96811.19;;;10.62;100.00
56807;BME280;42687;42.524;12.052;2022-11-15T12:26:57;96804.88;;;10.65;100.00
56807;BME280;42687;42.524;12.052;2022-11-15T12:29:38;96809.22;;;10.66;100.00
56807;BME280;42687;42.524;12.052;2022-11-15T12:32:12;96812.63;;;10.68;100.00
56807;BME280;42687;42.524;12.052;2022-11-15T12:34:43;96810.13;;;10.65;100.00
56807;BME280;42687;42.524;12.052;2022-11-15T12:42:38;96792.44;;;10.52;100.00
56807;BME280;42687;42.524;12.052;2022-11-15T12:45:22;96780.59;;;10.45;100.00
56807;BME280;42687;42.524;12.052;2022-11-15T12:47:48;96787.91;;;10.40;100.00
56807;BME280;42687;42.524;12.052;2022-11-15T12:50:14;96779.66;;;10.30;100.00
56807;BME280;42687;42.524;12.052;2022-11-15T12:53:02;96778.22;;;10.25;100.00
56807;BME280;42687;42.524;12.052;2022-11-15T12:55:29;96778.59;;;10.18;100.00
56807;BME280;42687;42.524;12.052;2022-11-15T12:57:56;96778.16;;;10.10;100.00
56807;BME280;42687;42.524;12.052;2022-11-15T13:00:41;96775.69;;;10.07;100.00
56807;BME280;42687;42.524;12.052;2022-11-15T13:03:17;96776.91;;;10.01;100.00
56807;BME280;42687;42.524;12.052;2022-11-15T13:08:08;96758.94;;;9.94;100.00
56807;BME280;42687;42.524;12.052;2022-11-15T13:10:34;96745.69;;;9.95;100.00
56807;BME280;42687;42.524;12.052;2022-11-15T13:13:01;96749.34;;;9.93;100.00
56807;BME280;42687;42.524;12.052;2022-11-15T13:15:31;96748.59;;;9.91;100.00
56807;BME280;42687;42.524;12.052;2022-11-15T13:17:57;96735.81;;;9.84;100.00
56807;BME280;42687;42.524;12.052;2022-11-15T13:20:26;96735.22;;;9.79;100.00
56807;BME280;42687;42.524;12.052;2022-11-15T13:30:52;96721.81;;;9.68;100.00
56807;BME280;42687;42.524;12.052;2022-11-15T13:33:36;96713.00;;;9.69;100.00
56807;BME280;42687;42.524;12.052;2022-11-15T13:36:06;96720.13;;;9.67;100.00
56807;BME280;42687;42.524;12.052;2022-11-15T13:38:38;96717.56;;;9.65;100.00
56807;BME280;42687;42.524;12.052;2022-11-15T13:41:18;96712.31;;;9.65;100.00
56807;BME280;42687;42.524;12.052;2022-11-15T13:43:45;96705.31;;;9.66;100.00
56807;BME280;42687;42.524;12.052;2022-11-15T13:46:21;96698.34;;;9.65;100.00
56807;BME280;42687;42.524;12.052;2022-11-15T13:48:55;96690.66;;;9.62;100.00
56807;BME280;42687;42.524;12.052;2022-11-15T13:51:30;96689.88;;;9.60;100.00
56807;BME280;42687;42.524;12.052;2022-11-15T13:53:59;96683.81;;;9.59;100.00
56807;BME280;42687;42.524;12.052;2022-11-15T13:56:27;96682.88;;;9.60;100.00
56807;BME280;42687;42.524;12.052;2022-11-15T13:58:54;96683.63;;;9.62;100.00
56807;BME280;42687;42.524;12.052;2022-11-15T14:01:20;96686.16;;;9.64;100.00
56807;BME280;42687;42.524;12.052;2022-11-15T14:03:50;96677.16;;;9.68;100.00
56807;BME280;42687;42.524;12.052;2022-11-15T14:06:18;96668.22;;;9.72;100.00
56807;BME280;42687;42.524;12.052;2022-11-15T14:09:02;96669.72;;;9.76;100.00
56807;BME280;42687;42.524;12.052;2022-11-15T14:11:28;96672.19;;;9.79;100.00
56807;BME280;42687;42.524;12.052;2022-11-15T14:16:47;96674.47;;;9.85;100.00